sensor_id;sensor_type;location;lat;lon;timestamp;P1;durP1;ratioP1;P2;durP2;ratioP2
60502;SDS011;51448;51.660;5.824;2022-12-05T00:01:32;55.53;;;38.55;;
60502;SDS011;51448;51.660;5.824;2022-12-05T00:04:10;55.63;;;37.78;;
60502;SDS011;51448;51.660;5.824;2022-12-05T00:06:40;54.33;;;35.42;;
60502;SDS011;51448;51.660;5.824;2022-12-05T00:09:09;53.28;;;38.53;;
60502;SDS011;51448;51.660;5.824;2022-12-05T00:11:39;54.25;;;37.92;;
60502;SDS011;51448;51.660;5.824;2022-12-05T00:14:09;58.53;;;39.53;;
60502;SDS011;51448;51.660;5.824;2022-12-05T00:16:38;50.75;;;35.42;;
60502;SDS011;51448;51.660;5.824;2022-12-05T00:19:09;55.17;;;39.25;;
60502;SDS011;51448;51.660;5.824;2022-12-05T00:21:40;51.67;;;36.05;;
60502;SDS011;51448;51.660;5.824;2022-12-05T00:24:10;56.88;;;40.00;;
60502;SDS011;51448;51.660;5.824;2022-12-05T00:26:41;53.80;;;37.83;;
60502;SDS011;51448;51.660;5.824;2022-12-05T00:29:09;53.30;;;35.08;;
60502;SDS011;51448;51.660;5.824;2022-12-05T00:31:38;53.83;;;36.13;;
60502;SDS011;51448;51.660;5.824;2022-12-05T00:34:05;50.45;;;35.42;;
60502;SDS011;51448;51.660;5.824;2022-12-05T00:36:33;53.40;;;36.97;;
60502;SDS011;51448;51.660;5.824;2022-12-05T00:39:04;52.22;;;35.53;;
60502;SDS011;51448;51.660;5.824;2022-12-05T00:41:36;49.75;;;35.35;;
60502;SDS011;51448;51.660;5.824;2022-12-05T00:44:04;49.42;;;36.05;;
60502;SDS011;51448;51.660;5.824;2022-12-05T00:46:32;48.75;;;34.53;;
60502;SDS011;51448;51.660;5.824;2022-12-05T00:49:02;57.05;;;39.20;;
60502;SDS011;51448;51.660;5.824;2022-12-05T00:51:33;56.75;;;38.00;;
60502;SDS011;51448;51.660;5.824;2022-12-05T00:54:07;51.45;;;35.60;;
60502;SDS011;51448;51.660;5.824;2022-12-05T00:56:39;50.20;;;35.20;;
60502;SDS011;51448;51.660;5.824;2022-12-05T00:59:08;56.90;;;38.75;;
60502;SDS011;51448;51.660;5.824;2022-12-05T01:01:43;49.97;;;34.53;;
60502;SDS011;51448;51.660;5.824;2022-12-05T01:04:14;49.83;;;34.15;;
60502;SDS011;51448;51.660;5.824;2022-12-05T01:06:48;47.92;;;32.15;;
60502;SDS011;51448;51.660;5.824;2022-12-05T01:09:19;51.38;;;36.72;;
60502;SDS011;51448;51.660;5.824;2022-12-05T01:11:47;50.45;;;35.15;;
60502;SDS011;51448;51.660;5.824;2022-12-05T01:14:17;50.55;;;35.45;;
60502;SDS011;51448;51.660;5.824;2022-12-05T01:16:49;51.85;;;36.95;;
60502;SDS011;51448;51.660;5.824;2022-12-05T01:19:23;53.22;;;38.65;;
60502;SDS011;51448;51.660;5.824;2022-12-05T01:21:54;51.72;;;35.10;;
60502;SDS011;51448;51.660;5.824;2022-12-05T01:24:23;51.05;;;35.95;;
60502;SDS011;51448;51.660;5.824;2022-12-05T01:26:53;53.75;;;37.00;;
60502;SDS011;51448;51.660;5.824;2022-12-05T01:29:21;54.25;;;36.35;;
60502;SDS011;51448;51.660;5.824;2022-12-05T01:31:51;54.38;;;34.65;;
60502;SDS011;51448;51.660;5.824;2022-12-05T01:34:20;55.42;;;39.38;;
60502;SDS011;51448;51.660;5.824;2022-12-05T01:36:48;52.80;;;37.88;;
60502;SDS011;51448;51.660;5.824;2022-12-05T01:39:16;52.92;;;36.42;;
60502;SDS011;51448;51.660;5.824;2022-12-05T01:41:44;52.75;;;36.25;;
60502;SDS011;51448;51.660;5.824;2022-12-05T01:46:42;58.95;;;39.42;;
60502;SDS011;51448;51.660;5.824;2022-12-05T01:51:48;52.83;;;36.45;;
60502;SDS011;51448;51.660;5.824;2022-12-05T01:54:21;60.50;;;40.80;;
60502;SDS011;51448;51.660;5.824;2022-12-05T01:56:51;57.33;;;39.15;;
60502;SDS011;51448;51.660;5.824;2022-12-05T01:59:24;52.92;;;37.65;;
60502;SDS011;51448;51.660;5.824;2022-12-05T02:01:56;55.85;;;39.30;;
60502;SDS011;51448;51.660;5.824;2022-12-05T02:04:24;53.85;;;37.63;;
60502;SDS011;51448;51.660;5.824;2022-12-05T02:06:53;59.40;;;40.03;;
60502;SDS011;51448;51.660;5.824;2022-12-05T02:09:21;50.92;;;34.33;;
60502;SDS011;51448;51.660;5.824;2022-12-05T02:11:50;58.80;;;40.50;;
60502;SDS011;51448;51.660;5.824;2022-12-05T02:14:29;52.47;;;36.15;;
60502;SDS011;51448;51.660;5.824;2022-12-05T02:20:26;53.17;;;36.75;;
60502;SDS011;51448;51.660;5.824;2022-12-05T02:23:19;62.35;;;40.25;;
60502;SDS011;51448;51.660;5.824;2022-12-05T02:29:09;54.67;;;36.78;;
60502;SDS011;51448;51.660;5.824;2022-12-05T02:31:59;61.78;;;39.75;;
60502;SDS011;51448;51.660;5.824;2022-12-05T02:34:40;57.40;;;35.75;;
60502;SDS011;51448;51.660;5.824;2022-12-05T02:37:28;59.75;;;39.08;;
60502;SDS011;51448;51.660;5.824;2022-12-05T02:45:52;62.85;;;39.92;;
60502;SDS011;51448;51.660;5.824;2022-12-05T02:48:27;62.58;;;36.95;;
60502;SDS011;51448;51.660;5.824;2022-12-05T02:50:55;65.03;;;40.90;;
60502;SDS011;51448;51.660;5.824;2022-12-05T02:53:28;62.97;;;40.95;;
60502;SDS011;51448;51.660;5.824;2022-12-05T02:55:58;64.05;;;40.33;;
60502;SDS011;51448;51.660;5.824;2022-12-05T02:58:32;71.10;;;41.92;;
60502;SDS011;51448;51.660;5.824;2022-12-05T03:01:09;66.40;;;42.72;;
60502;SDS011;51448;51.660;5.824;2022-12-05T03:03:37;67.22;;;44.70;;
60502;SDS011;51448;51.660;5.824;2022-12-05T03:06:06;63.92;;;38.35;;
60502;SDS011;51448;51.660;5.824;2022-12-05T03:08:45;73.30;;;41.63;;
60502;SDS011;51448;51.660;5.824;2022-12-05T03:11:21;71.40;;;43.42;;
60502;SDS011;51448;51.660;5.824;2022-12-05T03:13:57;74.45;;;41.53;;
60502;SDS011;51448;51.660;5.824;2022-12-05T03:16:37;79.38;;;45.17;;
60502;SDS011;51448;51.660;5.824;2022-12-05T03:19:16;74.70;;;43.90;;
60502;SDS011;51448;51.660;5.824;2022-12-05T03:21:55;72.20;;;44.15;;
60502;SDS011;51448;51.660;5.824;2022-12-05T03:24:29;71.40;;;45.50;;
60502;SDS011;51448;51.660;5.824;2022-12-05T03:27:07;72.45;;;42.45;;
60502;SDS011;51448;51.660;5.824;2022-12-05T03:30:07;76.07;;;45.63;;
60502;SDS011;51448;51.660;5.824;2022-12-05T03:32:48;72.28;;;43.78;;
60502;SDS011;51448;51.660;5.824;2022-12-05T03:35:43;70.32;;;41.13;;
60502;SDS011;51448;51.660;5.824;2022-12-05T03:38:46;77.15;;;46.67;;
60502;SDS011;51448;51.660;5.824;2022-12-05T03:41:27;72.43;;;43.17;;
60502;SDS011;51448;51.660;5.824;2022-12-05T03:44:17;73.32;;;43.47;;
60502;SDS011;51448;51.660;5.824;2022-12-05T03:46:58;72.38;;;43.70;;
60502;SDS011;51448;51.660;5.824;2022-12-05T03:49:50;72.25;;;42.28;;
60502;SDS011;51448;51.660;5.824;2022-12-05T03:55:48;74.22;;;42.53;;
60502;SDS011;51448;51.660;5.824;2022-12-05T03:58:29;76.47;;;41.88;;
60502;SDS011;51448;51.660;5.824;2022-12-05T04:01:09;71.47;;;41.95;;
60502;SDS011;51448;51.660;5.824;2022-12-05T04:03:44;67.32;;;41.03;;
60502;SDS011;51448;51.660;5.824;2022-12-05T04:06:24;68.43;;;42.88;;
60502;SDS011;51448;51.660;5.824;2022-12-05T04:09:02;75.28;;;44.95;;
60502;SDS011;51448;51.660;5.824;2022-12-05T04:11:44;70.57;;;41.45;;
60502;SDS011;51448;51.660;5.824;2022-12-05T04:14:36;69.03;;;42.05;;
60502;SDS011;51448;51.660;5.824;2022-12-05T04:17:17;78.45;;;45.92;;
60502;SDS011;51448;51.660;5.824;2022-12-05T04:20:01;72.90;;;43.08;;
60502;SDS011;51448;51.660;5.824;2022-12-05T04:22:56;70.10;;;42.13;;
60502;SDS011;51448;51.660;5.824;2022-12-05T04:25:26;68.93;;;42.53;;
60502;SDS011;51448;51.660;5.824;2022-12-05T04:28:19;78.00;;;43.25;;
60502;SDS011;51448;51.660;5.824;2022-12-05T04:31:16;70.15;;;40.90;;
60502;SDS011;51448;51.660;5.824;2022-12-05T04:33:56;74.50;;;42.22;;
60502;SDS011;51448;51.660;5.824;2022-12-05T04:36:35;70.35;;;40.92;;
60502;SDS011;51448;51.660;5.824;2022-12-05T04:41:53;81.57;;;44.93;;
60502;SDS011;51448;51.660;5.824;2022-12-05T04:45:03;76.07;;;44.15;;
60502;SDS011;51448;51.660;5.824;2022-12-05T04:47:29;80.85;;;46.08;;
60502;SDS011;51448;51.660;5.824;2022-12-05T04:50:05;66.40;;;39.45;;
60502;SDS011;51448;51.660;5.824;2022-12-05T04:52:37;71.43;;;40.88;;
60502;SDS011;51448;51.660;5.824;2022-12-05T04:55:09;69.43;;;43.58;;
60502;SDS011;51448;51.660;5.824;2022-12-05T04:57:43;65.85;;;38.72;;
60502;SDS011;51448;51.660;5.824;2022-12-05T05:00:21;69.22;;;41.75;;
60502;SDS011;51448;51.660;5.824;2022-12-05T05:02:50;67.13;;;40.88;;
60502;SDS011;51448;51.660;5.824;2022-12-05T05:05:27;64.38;;;40.88;;
60502;SDS011;51448;51.660;5.824;2022-12-05T05:07:56;58.92;;;37.55;;
60502;SDS011;51448;51.660;5.824;2022-12-05T05:11:01;59.03;;;37.75;;
60502;SDS011;51448;51.660;5.824;2022-12-05T05:13:37;51.53;;;32.47;;
60502;SDS011;51448;51.660;5.824;2022-12-05T05:16:04;50.92;;;33.10;;
60502;SDS011;51448;51.660;5.824;2022-12-05T05:18:33;60.65;;;38.75;;
60502;SDS011;51448;51.660;5.824;2022-12-05T05:21:00;55.15;;;36.55;;
60502;SDS011;51448;51.660;5.824;2022-12-05T05:23:28;57.05;;;36.22;;
60502;SDS011;51448;51.660;5.824;2022-12-05T05:25:55;57.47;;;36.22;;
60502;SDS011;51448;51.660;5.824;2022-12-05T05:28:23;51.47;;;35.00;;
60502;SDS011;51448;51.660;5.824;2022-12-05T05:30:50;54.20;;;35.33;;
60502;SDS011;51448;51.660;5.824;2022-12-05T05:33:18;50.97;;;35.10;;
60502;SDS011;51448;51.660;5.824;2022-12-05T05:35:46;47.45;;;31.95;;
60502;SDS011;51448;51.660;5.824;2022-12-05T05:38:15;44.97;;;30.38;;
60502;SDS011;51448;51.660;5.824;2022-12-05T05:40:47;51.75;;;34.92;;
60502;SDS011;51448;51.660;5.824;2022-12-05T05:43:17;53.45;;;34.00;;
60502;SDS011;51448;51.660;5.824;2022-12-05T05:45:44;45.25;;;30.27;;
60502;SDS011;51448;51.660;5.824;2022-12-05T05:48:11;53.95;;;35.72;;
60502;SDS011;51448;51.660;5.824;2022-12-05T05:50:39;46.67;;;31.85;;
60502;SDS011;51448;51.660;5.824;2022-12-05T05:53:10;43.93;;;31.67;;
60502;SDS011;51448;51.660;5.824;2022-12-05T05:55:38;46.28;;;31.35;;
60502;SDS011;51448;51.660;5.824;2022-12-05T05:58:07;46.17;;;32.08;;
60502;SDS011;51448;51.660;5.824;2022-12-05T06:00:35;44.13;;;30.63;;
60502;SDS011;51448;51.660;5.824;2022-12-05T06:03:02;42.50;;;28.63;;
60502;SDS011;51448;51.660;5.824;2022-12-05T06:05:30;39.15;;;26.00;;
60502;SDS011;51448;51.660;5.824;2022-12-05T06:07:57;42.78;;;28.73;;
60502;SDS011;51448;51.660;5.824;2022-12-05T06:10:25;43.25;;;30.25;;
60502;SDS011;51448;51.660;5.824;2022-12-05T06:12:52;46.30;;;31.40;;
60502;SDS011;51448;51.660;5.824;2022-12-05T06:15:20;44.05;;;27.95;;
60502;SDS011;51448;51.660;5.824;2022-12-05T06:17:47;44.55;;;30.77;;
60502;SDS011;51448;51.660;5.824;2022-12-05T06:20:15;38.45;;;26.83;;
60502;SDS011;51448;51.660;5.824;2022-12-05T06:22:42;41.53;;;28.60;;
60502;SDS011;51448;51.660;5.824;2022-12-05T06:25:10;44.17;;;30.60;;
60502;SDS011;51448;51.660;5.824;2022-12-05T06:27:37;39.65;;;28.02;;
60502;SDS011;51448;51.660;5.824;2022-12-05T06:30:05;40.03;;;25.75;;
60502;SDS011;51448;51.660;5.824;2022-12-05T06:32:33;42.30;;;27.95;;
60502;SDS011;51448;51.660;5.824;2022-12-05T06:35:00;38.08;;;27.02;;
60502;SDS011;51448;51.660;5.824;2022-12-05T06:37:35;43.25;;;30.90;;
60502;SDS011;51448;51.660;5.824;2022-12-05T06:40:04;37.70;;;25.05;;
60502;SDS011;51448;51.660;5.824;2022-12-05T06:42:33;36.25;;;24.67;;
60502;SDS011;51448;51.660;5.824;2022-12-05T06:45:00;40.05;;;27.13;;
60502;SDS011;51448;51.660;5.824;2022-12-05T06:47:28;38.47;;;27.15;;
60502;SDS011;51448;51.660;5.824;2022-12-05T06:49:56;42.47;;;28.20;;
60502;SDS011;51448;51.660;5.824;2022-12-05T06:52:24;45.05;;;29.00;;
60502;SDS011;51448;51.660;5.824;2022-12-05T06:54:51;41.17;;;27.55;;
60502;SDS011;51448;51.660;5.824;2022-12-05T06:57:18;34.70;;;23.45;;
60502;SDS011;51448;51.660;5.824;2022-12-05T06:59:46;42.50;;;26.48;;
60502;SDS011;51448;51.660;5.824;2022-12-05T07:02:13;42.95;;;27.55;;
60502;SDS011;51448;51.660;5.824;2022-12-05T07:04:41;39.88;;;26.95;;
60502;SDS011;51448;51.660;5.824;2022-12-05T07:07:08;38.58;;;26.60;;
60502;SDS011;51448;51.660;5.824;2022-12-05T07:09:36;44.00;;;28.27;;
60502;SDS011;51448;51.660;5.824;2022-12-05T07:12:15;39.00;;;24.90;;
60502;SDS011;51448;51.660;5.824;2022-12-05T07:14:45;37.65;;;27.42;;
60502;SDS011;51448;51.660;5.824;2022-12-05T07:17:16;38.58;;;25.52;;
60502;SDS011;51448;51.660;5.824;2022-12-05T07:19:48;38.95;;;27.08;;
60502;SDS011;51448;51.660;5.824;2022-12-05T07:22:18;36.65;;;25.30;;
60502;SDS011;51448;51.660;5.824;2022-12-05T07:24:49;42.22;;;28.65;;
60502;SDS011;51448;51.660;5.824;2022-12-05T07:27:18;35.63;;;24.63;;
60502;SDS011;51448;51.660;5.824;2022-12-05T07:29:53;39.67;;;25.23;;
60502;SDS011;51448;51.660;5.824;2022-12-05T07:32:21;37.85;;;27.20;;
60502;SDS011;51448;51.660;5.824;2022-12-05T07:34:48;40.20;;;27.05;;
60502;SDS011;51448;51.660;5.824;2022-12-05T07:37:21;38.50;;;26.95;;
60502;SDS011;51448;51.660;5.824;2022-12-05T07:39:50;35.80;;;24.70;;
60502;SDS011;51448;51.660;5.824;2022-12-05T07:42:19;35.65;;;25.83;;
60502;SDS011;51448;51.660;5.824;2022-12-05T07:44:46;39.72;;;27.40;;
60502;SDS011;51448;51.660;5.824;2022-12-05T07:47:13;38.67;;;28.30;;
60502;SDS011;51448;51.660;5.824;2022-12-05T07:49:41;39.50;;;25.83;;
60502;SDS011;51448;51.660;5.824;2022-12-05T07:52:08;37.13;;;26.23;;
60502;SDS011;51448;51.660;5.824;2022-12-05T07:54:36;41.90;;;26.90;;
60502;SDS011;51448;51.660;5.824;2022-12-05T07:57:03;38.45;;;25.05;;
60502;SDS011;51448;51.660;5.824;2022-12-05T07:59:31;40.33;;;24.63;;
60502;SDS011;51448;51.660;5.824;2022-12-05T08:01:58;41.10;;;26.83;;
60502;SDS011;51448;51.660;5.824;2022-12-05T08:04:26;38.50;;;26.83;;
60502;SDS011;51448;51.660;5.824;2022-12-05T08:06:53;43.47;;;27.45;;
60502;SDS011;51448;51.660;5.824;2022-12-05T08:09:20;43.88;;;27.05;;
60502;SDS011;51448;51.660;5.824;2022-12-05T08:11:48;42.20;;;28.52;;
60502;SDS011;51448;51.660;5.824;2022-12-05T08:14:19;41.80;;;27.60;;
60502;SDS011;51448;51.660;5.824;2022-12-05T08:16:47;46.85;;;31.15;;
60502;SDS011;51448;51.660;5.824;2022-12-05T08:19:15;41.75;;;28.35;;
60502;SDS011;51448;51.660;5.824;2022-12-05T08:21:43;38.38;;;25.70;;
60502;SDS011;51448;51.660;5.824;2022-12-05T08:24:11;37.65;;;25.15;;
60502;SDS011;51448;51.660;5.824;2022-12-05T08:26:39;42.25;;;28.88;;
60502;SDS011;51448;51.660;5.824;2022-12-05T08:29:13;41.78;;;27.60;;
60502;SDS011;51448;51.660;5.824;2022-12-05T08:31:46;42.00;;;26.90;;
60502;SDS011;51448;51.660;5.824;2022-12-05T08:34:17;43.03;;;29.40;;
60502;SDS011;51448;51.660;5.824;2022-12-05T08:36:46;40.60;;;26.40;;
60502;SDS011;51448;51.660;5.824;2022-12-05T08:39:15;41.13;;;28.38;;
60502;SDS011;51448;51.660;5.824;2022-12-05T08:41:45;38.03;;;25.30;;
60502;SDS011;51448;51.660;5.824;2022-12-05T08:44:14;39.67;;;26.02;;
60502;SDS011;51448;51.660;5.824;2022-12-05T08:46:44;40.50;;;27.17;;
60502;SDS011;51448;51.660;5.824;2022-12-05T08:49:16;37.25;;;25.08;;
60502;SDS011;51448;51.660;5.824;2022-12-05T08:51:44;32.45;;;22.60;;
60502;SDS011;51448;51.660;5.824;2022-12-05T08:54:12;33.70;;;23.38;;
60502;SDS011;51448;51.660;5.824;2022-12-05T08:56:40;29.00;;;21.48;;
60502;SDS011;51448;51.660;5.824;2022-12-05T08:59:07;30.40;;;21.45;;
60502;SDS011;51448;51.660;5.824;2022-12-05T09:01:35;31.10;;;22.00;;
60502;SDS011;51448;51.660;5.824;2022-12-05T09:04:05;27.20;;;18.67;;
60502;SDS011;51448;51.660;5.824;2022-12-05T09:06:33;23.55;;;18.30;;
60502;SDS011;51448;51.660;5.824;2022-12-05T09:09:03;20.98;;;15.20;;
60502;SDS011;51448;51.660;5.824;2022-12-05T09:11:34;23.10;;;16.80;;
60502;SDS011;51448;51.660;5.824;2022-12-05T09:14:07;26.10;;;18.02;;
60502;SDS011;51448;51.660;5.824;2022-12-05T09:16:35;22.02;;;17.10;;
60502;SDS011;51448;51.660;5.824;2022-12-05T09:19:10;22.33;;;15.97;;
60502;SDS011;51448;51.660;5.824;2022-12-05T09:21:41;22.02;;;16.50;;
60502;SDS011;51448;51.660;5.824;2022-12-05T09:24:10;19.35;;;14.07;;
60502;SDS011;51448;51.660;5.824;2022-12-05T09:26:39;19.15;;;14.07;;
60502;SDS011;51448;51.660;5.824;2022-12-05T09:29:08;21.02;;;15.43;;
60502;SDS011;51448;51.660;5.824;2022-12-05T09:31:43;18.77;;;13.32;;
60502;SDS011;51448;51.660;5.824;2022-12-05T09:34:13;17.80;;;13.82;;
60502;SDS011;51448;51.660;5.824;2022-12-05T09:36:41;20.20;;;15.85;;
60502;SDS011;51448;51.660;5.824;2022-12-05T09:39:10;20.15;;;15.25;;
60502;SDS011;51448;51.660;5.824;2022-12-05T09:53:32;15.02;;;11.73;;
60502;SDS011;51448;51.660;5.824;2022-12-05T09:58:58;16.17;;;12.43;;
60502;SDS011;51448;51.660;5.824;2022-12-05T10:01:46;17.25;;;13.90;;
60502;SDS011;51448;51.660;5.824;2022-12-05T10:05:05;16.10;;;13.02;;
60502;SDS011;51448;51.660;5.824;2022-12-05T10:07:57;18.17;;;13.90;;
60502;SDS011;51448;51.660;5.824;2022-12-05T10:10:47;16.25;;;12.32;;
60502;SDS011;51448;51.660;5.824;2022-12-05T10:13:44;15.85;;;13.55;;
60502;SDS011;51448;51.660;5.824;2022-12-05T10:16:28;16.40;;;13.38;;
60502;SDS011;51448;51.660;5.824;2022-12-05T10:19:08;17.38;;;12.88;;
60502;SDS011;51448;51.660;5.824;2022-12-05T10:21:48;16.40;;;13.15;;
60502;SDS011;51448;51.660;5.824;2022-12-05T10:24:36;14.27;;;10.88;;
60502;SDS011;51448;51.660;5.824;2022-12-05T10:27:12;14.48;;;10.43;;
60502;SDS011;51448;51.660;5.824;2022-12-05T10:29:51;14.30;;;10.48;;
60502;SDS011;51448;51.660;5.824;2022-12-05T10:32:27;13.73;;;10.85;;
60502;SDS011;51448;51.660;5.824;2022-12-05T10:35:16;13.85;;;10.82;;
60502;SDS011;51448;51.660;5.824;2022-12-05T10:37:56;13.77;;;10.82;;
60502;SDS011;51448;51.660;5.824;2022-12-05T10:40:33;14.60;;;11.55;;
60502;SDS011;51448;51.660;5.824;2022-12-05T10:43:13;13.98;;;10.90;;
60502;SDS011;51448;51.660;5.824;2022-12-05T10:45:55;16.17;;;12.02;;
60502;SDS011;51448;51.660;5.824;2022-12-05T10:48:24;17.85;;;14.02;;
60502;SDS011;51448;51.660;5.824;2022-12-05T10:50:53;19.00;;;15.52;;
60502;SDS011;51448;51.660;5.824;2022-12-05T10:53:25;19.70;;;16.45;;
60502;SDS011;51448;51.660;5.824;2022-12-05T10:56:33;20.52;;;16.33;;
60502;SDS011;51448;51.660;5.824;2022-12-05T10:59:43;20.05;;;15.88;;
60502;SDS011;51448;51.660;5.824;2022-12-05T11:02:25;20.50;;;16.92;;
60502;SDS011;51448;51.660;5.824;2022-12-05T11:04:56;17.75;;;15.07;;
60502;SDS011;51448;51.660;5.824;2022-12-05T11:07:30;23.13;;;18.35;;
60502;SDS011;51448;51.660;5.824;2022-12-05T11:10:01;19.92;;;16.55;;
60502;SDS011;51448;51.660;5.824;2022-12-05T11:12:54;19.90;;;15.85;;
60502;SDS011;51448;51.660;5.824;2022-12-05T11:15:25;20.55;;;15.80;;
60502;SDS011;51448;51.660;5.824;2022-12-05T11:17:57;18.50;;;15.25;;
60502;SDS011;51448;51.660;5.824;2022-12-05T11:20:45;17.52;;;14.88;;
60502;SDS011;51448;51.660;5.824;2022-12-05T11:23:23;20.17;;;15.80;;
60502;SDS011;51448;51.660;5.824;2022-12-05T11:25:55;18.58;;;14.70;;
60502;SDS011;51448;51.660;5.824;2022-12-05T11:28:28;19.92;;;15.20;;
60502;SDS011;51448;51.660;5.824;2022-12-05T11:31:04;16.88;;;14.38;;
60502;SDS011;51448;51.660;5.824;2022-12-05T11:33:58;18.85;;;14.77;;
60502;SDS011;51448;51.660;5.824;2022-12-05T11:36:34;19.00;;;15.32;;
60502;SDS011;51448;51.660;5.824;2022-12-05T11:39:12;21.50;;;16.95;;
60502;SDS011;51448;51.660;5.824;2022-12-05T11:47:40;18.65;;;15.02;;
60502;SDS011;51448;51.660;5.824;2022-12-05T11:50:14;18.35;;;15.10;;
60502;SDS011;51448;51.660;5.824;2022-12-05T11:53:24;17.77;;;15.43;;
60502;SDS011;51448;51.660;5.824;2022-12-05T12:08:18;17.80;;;14.80;;
60502;SDS011;51448;51.660;5.824;2022-12-05T12:13:58;17.52;;;14.55;;
60502;SDS011;51448;51.660;5.824;2022-12-05T12:22:51;16.73;;;13.63;;
60502;SDS011;51448;51.660;5.824;2022-12-05T12:26:03;17.70;;;14.80;;
60502;SDS011;51448;51.660;5.824;2022-12-05T12:29:13;16.77;;;14.40;;
60502;SDS011;51448;51.660;5.824;2022-12-05T12:41:27;16.90;;;14.38;;
60502;SDS011;51448;51.660;5.824;2022-12-05T12:47:16;17.15;;;14.90;;
60502;SDS011;51448;51.660;5.824;2022-12-05T12:50:02;20.67;;;14.75;;
60502;SDS011;51448;51.660;5.824;2022-12-05T12:55:41;17.83;;;14.60;;
60502;SDS011;51448;51.660;5.824;2022-12-05T13:04:23;19.73;;;14.60;;
60502;SDS011;51448;51.660;5.824;2022-12-05T13:06:59;18.67;;;14.85;;
60502;SDS011;51448;51.660;5.824;2022-12-05T13:09:48;17.08;;;14.40;;
60502;SDS011;51448;51.660;5.824;2022-12-05T13:12:31;15.18;;;12.93;;
60502;SDS011;51448;51.660;5.824;2022-12-05T13:15:15;17.17;;;13.88;;
60502;SDS011;51448;51.660;5.824;2022-12-05T13:17:58;18.13;;;13.73;;
60502;SDS011;51448;51.660;5.824;2022-12-05T13:20:31;18.10;;;14.82;;
60502;SDS011;51448;51.660;5.824;2022-12-05T13:23:02;17.55;;;14.07;;
60502;SDS011;51448;51.660;5.824;2022-12-05T13:25:35;17.00;;;13.98;;
60502;SDS011;51448;51.660;5.824;2022-12-05T13:28:06;16.53;;;13.57;;
60502;SDS011;51448;51.660;5.824;2022-12-05T13:30:52;18.25;;;14.23;;
60502;SDS011;51448;51.660;5.824;2022-12-05T13:33:25;17.17;;;14.07;;
60502;SDS011;51448;51.660;5.824;2022-12-05T13:36:19;18.33;;;14.23;;
60502;SDS011;51448;51.660;5.824;2022-12-05T13:41:59;17.05;;;13.65;;
60502;SDS011;51448;51.660;5.824;2022-12-05T13:50:25;16.38;;;13.50;;
60502;SDS011;51448;51.660;5.824;2022-12-05T13:58:46;15.20;;;12.07;;
60502;SDS011;51448;51.660;5.824;2022-12-05T14:03:54;14.25;;;12.40;;
60502;SDS011;51448;51.660;5.824;2022-12-05T14:11:37;16.35;;;11.38;;
60502;SDS011;51448;51.660;5.824;2022-12-05T14:14:06;13.45;;;11.77;;
60502;SDS011;51448;51.660;5.824;2022-12-05T14:16:37;14.25;;;12.13;;
60502;SDS011;51448;51.660;5.824;2022-12-05T14:34:54;17.08;;;13.30;;
60502;SDS011;51448;51.660;5.824;2022-12-05T14:38:17;17.13;;;13.90;;
60502;SDS011;51448;51.660;5.824;2022-12-05T14:50:46;18.00;;;15.05;;
60502;SDS011;51448;51.660;5.824;2022-12-05T14:55:55;18.52;;;15.10;;
60502;SDS011;51448;51.660;5.824;2022-12-05T15:01:28;18.52;;;15.60;;
60502;SDS011;51448;51.660;5.824;2022-12-05T15:04:31;19.13;;;14.88;;
60502;SDS011;51448;51.660;5.824;2022-12-05T15:07:11;18.08;;;15.02;;
60502;SDS011;51448;51.660;5.824;2022-12-05T15:09:53;16.45;;;14.45;;
60502;SDS011;51448;51.660;5.824;2022-12-05T15:12:32;17.83;;;14.88;;
60502;SDS011;51448;51.660;5.824;2022-12-05T15:18:26;17.85;;;14.73;;
60502;SDS011;51448;51.660;5.824;2022-12-05T15:21:09;15.52;;;13.20;;
60502;SDS011;51448;51.660;5.824;2022-12-05T15:24:00;18.40;;;13.73;;
60502;SDS011;51448;51.660;5.824;2022-12-05T15:26:39;18.35;;;13.70;;
60502;SDS011;51448;51.660;5.824;2022-12-05T15:34:30;18.23;;;14.30;;
60502;SDS011;51448;51.660;5.824;2022-12-05T15:47:44;21.10;;;15.30;;
60502;SDS011;51448;51.660;5.824;2022-12-05T15:50:15;22.65;;;16.95;;
60502;SDS011;51448;51.660;5.824;2022-12-05T15:53:14;18.88;;;14.52;;
60502;SDS011;51448;51.660;5.824;2022-12-05T15:56:42;17.25;;;13.40;;
60502;SDS011;51448;51.660;5.824;2022-12-05T15:58:57;18.30;;;13.20;;
60502;SDS011;51448;51.660;5.824;2022-12-05T16:01:36;16.52;;;13.23;;
60502;SDS011;51448;51.660;5.824;2022-12-05T16:04:18;16.65;;;12.38;;
60502;SDS011;51448;51.660;5.824;2022-12-05T16:06:57;16.85;;;12.93;;
60502;SDS011;51448;51.660;5.824;2022-12-05T16:09:37;16.33;;;13.40;;
60502;SDS011;51448;51.660;5.824;2022-12-05T16:15:11;16.85;;;13.38;;
60502;SDS011;51448;51.660;5.824;2022-12-05T16:17:46;18.50;;;13.57;;
60502;SDS011;51448;51.660;5.824;2022-12-05T16:20:22;17.15;;;13.85;;
60502;SDS011;51448;51.660;5.824;2022-12-05T16:22:57;18.77;;;14.60;;
60502;SDS011;51448;51.660;5.824;2022-12-05T16:25:33;19.73;;;14.43;;
60502;SDS011;51448;51.660;5.824;2022-12-05T16:30:34;19.08;;;15.48;;
60502;SDS011;51448;51.660;5.824;2022-12-05T16:33:10;19.13;;;15.98;;
60502;SDS011;51448;51.660;5.824;2022-12-05T16:35:42;19.42;;;15.10;;
60502;SDS011;51448;51.660;5.824;2022-12-05T16:38:13;18.45;;;14.63;;
60502;SDS011;51448;51.660;5.824;2022-12-05T16:40:50;18.60;;;15.48;;
60502;SDS011;51448;51.660;5.824;2022-12-05T16:46:06;22.92;;;16.35;;
60502;SDS011;51448;51.660;5.824;2022-12-05T16:52:20;21.33;;;17.75;;
60502;SDS011;51448;51.660;5.824;2022-12-05T16:54:41;22.75;;;16.52;;
60502;SDS011;51448;51.660;5.824;2022-12-05T16:57:13;20.55;;;16.20;;
60502;SDS011;51448;51.660;5.824;2022-12-05T16:59:43;20.35;;;15.77;;
60502;SDS011;51448;51.660;5.824;2022-12-05T17:02:15;21.83;;;17.50;;
60502;SDS011;51448;51.660;5.824;2022-12-05T17:04:45;22.58;;;16.20;;
60502;SDS011;51448;51.660;5.824;2022-12-05T17:07:13;20.08;;;15.85;;
60502;SDS011;51448;51.660;5.824;2022-12-05T17:09:40;20.58;;;15.55;;
60502;SDS011;51448;51.660;5.824;2022-12-05T17:12:12;21.05;;;16.42;;
60502;SDS011;51448;51.660;5.824;2022-12-05T17:14:50;21.60;;;15.05;;
60502;SDS011;51448;51.660;5.824;2022-12-05T17:17:18;20.02;;;15.48;;
60502;SDS011;51448;51.660;5.824;2022-12-05T17:19:45;18.35;;;14.70;;
60502;SDS011;51448;51.660;5.824;2022-12-05T17:22:13;21.65;;;16.33;;
60502;SDS011;51448;51.660;5.824;2022-12-05T17:24:44;23.25;;;17.23;;
60502;SDS011;51448;51.660;5.824;2022-12-05T17:27:12;19.67;;;15.32;;
60502;SDS011;51448;51.660;5.824;2022-12-05T17:29:39;20.30;;;16.85;;
60502;SDS011;51448;51.660;5.824;2022-12-05T17:32:08;19.08;;;15.80;;
60502;SDS011;51448;51.660;5.824;2022-12-05T17:34:36;19.33;;;15.73;;
60502;SDS011;51448;51.660;5.824;2022-12-05T17:37:03;23.27;;;16.38;;
60502;SDS011;51448;51.660;5.824;2022-12-05T17:39:31;25.75;;;17.50;;
60502;SDS011;51448;51.660;5.824;2022-12-05T17:41:58;20.48;;;17.42;;
60502;SDS011;51448;51.660;5.824;2022-12-05T17:44:26;24.33;;;17.35;;
60502;SDS011;51448;51.660;5.824;2022-12-05T17:46:54;20.95;;;17.13;;
60502;SDS011;51448;51.660;5.824;2022-12-05T17:49:22;21.45;;;17.55;;
60502;SDS011;51448;51.660;5.824;2022-12-05T17:51:49;26.15;;;18.02;;
60502;SDS011;51448;51.660;5.824;2022-12-05T17:54:39;21.67;;;17.08;;
60502;SDS011;51448;51.660;5.824;2022-12-05T17:57:07;29.67;;;20.10;;